Time;durP1;ratioP1;P1;durP2;ratioP2;P2;SDS_P1;SDS_P2;PMS_P1;PMS_P2;Temp;Humidity;BMP_temperature;BMP_pressure;BME280_temperature;BME280_humidity;BME280_pressure;Samples;Min_cycle;Max_cycle;Signal;HPM_P1;HPM_P2
2023/07/16 00:00:46;;;;;;;;;;;18.80;99.90;;;;;;7327946;19;9239;-71
2023/07/16 00:03:15;;;;;;;;;;;18.80;99.90;;;;;;7326612;19;9518;-71
2023/07/16 00:05:44;;;;;;;;;;;18.70;99.90;;;;;;7329259;19;8944;-71
2023/07/16 00:08:13;;;;;;;;;;;18.70;99.90;;;;;;7328014;19;9322;-71
2023/07/16 00:10:42;;;;;;;;;;;18.70;99.90;;;;;;7328011;19;9190;-71
2023/07/16 00:13:13;;;;;;;;;;;18.80;99.90;;;;;;7329401;19;9197;-71
2023/07/16 00:15:42;;;;;;;;;;;19.00;99.90;;;;;;7328800;19;9215;-71
2023/07/16 00:18:11;;;;;;;;;;;19.00;99.90;;;;;;7326000;19;9177;-71
2023/07/16 00:20:40;;;;;;;;;;;19.00;99.90;;;;;;7317349;19;9669;-71
2023/07/16 00:23:09;;;;;;;;;;;19.10;99.90;;;;;;7306833;19;9480;-71
2023/07/16 00:25:38;;;;;;;;;;;19.10;99.90;;;;;;7302315;19;11053;-71
2023/07/16 00:28:07;;;;;;;;;;;19.20;99.90;;;;;;7307098;19;9474;-71
2023/07/16 00:30:39;;;;;;;;;;;19.20;99.90;;;;;;7304778;19;9517;-71
2023/07/16 00:33:08;;;;;;;;;;;19.10;99.90;;;;;;7297873;19;9300;-71
2023/07/16 00:35:37;;;;;;;;;;;18.90;99.90;;;;;;7308724;19;9232;-72
2023/07/16 00:38:05;;;;;;;;;;;18.80;99.90;;;;;;7305179;19;9291;-71
2023/07/16 00:40:34;;;;;;;;;;;18.80;99.90;;;;;;7306159;19;9334;-72
2023/07/16 00:43:03;;;;;;;;;;;18.70;99.90;;;;;;7305911;19;9414;-72
2023/07/16 00:45:32;;;;;;;;;;;18.60;99.90;;;;;;7304377;19;9267;-71
2023/07/16 00:48:07;;;;;;;;;;;18.50;99.90;;;;;;7303578;19;9411;-72
2023/07/16 00:50:39;;;;;;;;;;;18.50;99.90;;;;;;7302604;19;9229;-71
2023/07/16 00:53:09;;;;;;;;;;;18.40;99.90;;;;;;7306088;19;9411;-71
2023/07/16 00:55:39;;;;;;;;;;;18.40;99.90;;;;;;7304066;19;9466;-71
2023/07/16 00:58:09;;;;;;;;;;;18.40;99.90;;;;;;7304240;19;9614;-71
2023/07/16 01:00:40;;;;;;;;;;;18.40;99.90;;;;;;7305098;19;9469;-71
2023/07/16 01:03:16;;;;;;;;;;;18.50;99.90;;;;;;7302934;19;9574;-71
2023/07/16 01:05:51;;;;;;;;;;;18.50;99.90;;;;;;7305497;19;9580;-71
2023/07/16 01:08:29;;;;;;;;;;;18.50;99.90;;;;;;7303902;19;9185;-71
2023/07/16 01:10:58;;;;;;;;;;;18.60;99.90;;;;;;7303473;19;9705;-72
2023/07/16 01:13:29;;;;;;;;;;;18.80;99.90;;;;;;7304849;19;9233;-71
2023/07/16 01:15:58;;;;;;;;;;;18.70;99.90;;;;;;7304077;19;9252;-72
2023/07/16 01:18:30;;;;;;;;;;;18.70;99.90;;;;;;7303459;19;9428;-71
2023/07/16 01:20:59;;;;;;;;;;;18.70;99.90;;;;;;7301384;19;9140;-72
2023/07/16 01:24:01;;;;;;;;;;;18.60;99.90;;;;;;7303168;19;9610;-71
2023/07/16 01:26:54;;;;;;;;;;;18.70;99.90;;;;;;7303443;19;9276;-72
2023/07/16 01:29:37;;;;;;;;;;;18.60;99.90;;;;;;7303175;19;9237;-71
2023/07/16 01:32:10;;;;;;;;;;;18.50;99.90;;;;;;7303551;19;10754;-71
2023/07/16 01:34:39;;;;;;;;;;;18.40;99.90;;;;;;7303980;19;9376;-71
2023/07/16 01:37:08;;;;;;;;;;;18.50;99.90;;;;;;7305619;19;9296;-71
2023/07/16 01:39:38;;;;;;;;;;;18.50;99.90;;;;;;7301705;19;10155;-71
2023/07/16 01:42:08;;;;;;;;;;;18.40;99.90;;;;;;7303663;19;9609;-71
2023/07/16 01:44:39;;;;;;;;;;;18.20;99.90;;;;;;7312118;19;9154;-71
2023/07/16 01:47:12;;;;;;;;;;;18.10;99.90;;;;;;7316158;19;9248;-72
2023/07/16 01:49:42;;;;;;;;;;;18.10;99.90;;;;;;7313969;19;9269;-72
2023/07/16 01:52:11;;;;;;;;;;;18.00;99.90;;;;;;7318072;19;9428;-72
2023/07/16 01:54:40;;;;;;;;;;;18.00;99.90;;;;;;7315622;19;9449;-71
2023/07/16 01:57:09;;;;;;;;;;;18.10;99.90;;;;;;7316751;19;9255;-71
2023/07/16 01:59:41;;;;;;;;;;;18.10;99.90;;;;;;7313640;19;9315;-71
2023/07/16 02:02:10;;;;;;;;;;;18.10;99.90;;;;;;7316644;19;9332;-71
2023/07/16 02:04:39;;;;;;;;;;;18.00;99.90;;;;;;7315900;19;9296;-72
2023/07/16 02:07:08;;;;;;;;;;;18.00;99.90;;;;;;7321747;19;9334;-72
2023/07/16 02:09:37;;;;;;;;;;;18.10;99.90;;;;;;7315553;19;9245;-72
2023/07/16 02:12:07;;;;;;;;;;;18.10;99.90;;;;;;7316287;19;9197;-71
2023/07/16 02:14:36;;;;;;;;;;;18.00;99.90;;;;;;7315601;19;9380;-71
2023/07/16 02:17:08;;;;;;;;;;;18.00;99.90;;;;;;7317401;19;9465;-72
2023/07/16 02:19:37;;;;;;;;;;;18.20;99.90;;;;;;7314563;19;9393;-71
2023/07/16 02:22:06;;;;;;;;;;;18.20;99.90;;;;;;7312223;19;9358;-71
2023/07/16 02:24:35;;;;;;;;;;;18.30;99.90;;;;;;7314153;19;9851;-71
2023/07/16 02:27:04;;;;;;;;;;;18.40;99.90;;;;;;7316541;19;9270;-72
2023/07/16 02:29:35;;;;;;;;;;;18.30;99.90;;;;;;7314896;19;9249;-71
2023/07/16 02:32:04;;;;;;;;;;;18.30;99.90;;;;;;7317498;19;10280;-71
2023/07/16 02:34:35;;;;;;;;;;;18.40;99.90;;;;;;7313177;19;9776;-72
2023/07/16 02:37:04;;;;;;;;;;;18.40;99.90;;;;;;7319551;19;9256;-72
2023/07/16 02:39:33;;;;;;;;;;;18.40;99.90;;;;;;7314825;19;9268;-71
2023/07/16 02:42:02;;;;;;;;;;;18.30;99.90;;;;;;7315387;19;9506;-72
2023/07/16 02:44:31;;;;;;;;;;;18.30;99.90;;;;;;7314151;19;9144;-71
2023/07/16 02:47:00;;;;;;;;;;;18.30;99.90;;;;;;7316478;19;9469;-72
2023/07/16 02:49:29;;;;;;;;;;;18.40;99.90;;;;;;7315619;19;9380;-71
2023/07/16 02:52:01;;;;;;;;;;;18.50;99.90;;;;;;7314121;19;9427;-72
2023/07/16 02:54:30;;;;;;;;;;;18.50;99.90;;;;;;7313202;19;9415;-72
2023/07/16 02:56:59;;;;;;;;;;;18.60;99.90;;;;;;7308760;19;9414;-71
2023/07/16 02:59:28;;;;;;;;;;;18.70;99.90;;;;;;7305139;19;10305;-71
2023/07/16 03:01:57;;;;;;;;;;;18.80;99.90;;;;;;7309151;19;9774;-71
2023/07/16 03:04:26;;;;;;;;;;;18.90;99.90;;;;;;7306685;19;9273;-72
2023/07/16 03:06:55;;;;;;;;;;;18.70;99.90;;;;;;7311096;19;9104;-72
2023/07/16 03:09:29;;;;;;;;;;;18.60;99.90;;;;;;7305216;19;10676;-71
2023/07/16 03:11:58;;;;;;;;;;;18.50;99.90;;;;;;7309669;19;11100;-71
2023/07/16 03:14:27;;;;;;;;;;;18.30;99.90;;;;;;7305660;19;9350;-71
2023/07/16 03:16:56;;;;;;;;;;;18.30;99.90;;;;;;7307593;19;9312;-71
2023/07/16 03:19:25;;;;;;;;;;;18.40;99.90;;;;;;7295510;19;9591;-71
2023/07/16 03:21:54;;;;;;;;;;;18.30;99.90;;;;;;7304839;19;9466;-72
2023/07/16 03:24:26;;;;;;;;;;;18.40;99.90;;;;;;7300431;19;9448;-72
2023/07/16 03:26:55;;;;;;;;;;;18.40;99.90;;;;;;7306162;19;12052;-71
2023/07/16 03:29:24;;;;;;;;;;;18.20;99.90;;;;;;7304909;19;9368;-71
2023/07/16 03:31:53;;;;;;;;;;;18.20;99.90;;;;;;7307936;19;9391;-71
2023/07/16 03:34:23;;;;;;;;;;;18.20;99.90;;;;;;7305415;19;9249;-71
2023/07/16 03:36:52;;;;;;;;;;;18.20;99.90;;;;;;7310673;19;9566;-71
2023/07/16 03:39:21;;;;;;;;;;;18.20;99.90;;;;;;7304262;19;9437;-72
2023/07/16 03:41:55;;;;;;;;;;;18.20;99.90;;;;;;7308349;19;11196;-71
2023/07/16 03:44:24;;;;;;;;;;;18.20;99.90;;;;;;7304711;19;9347;-72
2023/07/16 03:46:53;;;;;;;;;;;18.30;99.90;;;;;;7306431;19;9740;-71
2023/07/16 03:49:21;;;;;;;;;;;18.30;99.90;;;;;;7306918;19;9270;-72
2023/07/16 03:51:50;;;;;;;;;;;18.30;99.90;;;;;;7305315;19;9456;-71
2023/07/16 03:54:20;;;;;;;;;;;18.50;99.90;;;;;;7306044;19;9461;-71
2023/07/16 03:56:49;;;;;;;;;;;18.50;99.90;;;;;;7307227;19;9274;-71
2023/07/16 03:59:21;;;;;;;;;;;18.50;99.90;;;;;;7305118;19;9540;-71
2023/07/16 04:01:51;;;;;;;;;;;18.40;99.90;;;;;;7305589;19;9063;-71
2023/07/16 04:04:20;;;;;;;;;;;18.50;99.90;;;;;;7307609;19;9229;-71
2023/07/16 04:06:51;;;;;;;;;;;18.50;99.90;;;;;;7309353;19;9229;-71
2023/07/16 04:09:20;;;;;;;;;;;18.40;99.90;;;;;;7304213;19;9611;-71
2023/07/16 04:11:49;;;;;;;;;;;18.30;99.90;;;;;;7304701;19;9430;-71
2023/07/16 04:14:21;;;;;;;;;;;18.30;99.90;;;;;;7305813;19;9547;-71
2023/07/16 04:16:50;;;;;;;;;;;18.30;99.90;;;;;;7307136;19;10709;-71
2023/07/16 04:19:23;;;;;;;;;;;18.30;99.90;;;;;;7300318;19;9286;-71
2023/07/16 04:21:53;;;;;;;;;;;18.30;99.90;;;;;;7304843;19;10626;-71
2023/07/16 04:24:22;;;;;;;;;;;18.40;99.90;;;;;;7303596;19;9481;-71
2023/07/16 04:26:51;;;;;;;;;;;18.30;99.90;;;;;;7304790;19;9272;-71
2023/07/16 04:29:23;;;;;;;;;;;18.40;99.90;;;;;;7305048;19;9720;-71
2023/07/16 04:31:52;;;;;;;;;;;18.20;99.90;;;;;;7300128;19;9131;-71
2023/07/16 04:34:21;;;;;;;;;;;18.20;99.90;;;;;;7308051;19;9363;-71
2023/07/16 04:36:50;;;;;;;;;;;18.30;99.90;;;;;;7309428;19;9598;-71
2023/07/16 04:39:19;;;;;;;;;;;18.30;99.90;;;;;;7303430;19;9269;-71
2023/07/16 04:41:48;;;;;;;;;;;18.30;99.90;;;;;;7303890;19;9281;-71
2023/07/16 04:44:16;;;;;;;;;;;18.30;99.90;;;;;;7304997;19;9181;-71
2023/07/16 04:46:48;;;;;;;;;;;18.40;99.90;;;;;;7306420;19;10301;-71
2023/07/16 04:49:17;;;;;;;;;;;18.40;99.90;;;;;;7303457;19;11505;-71
2023/07/16 04:51:46;;;;;;;;;;;18.30;99.90;;;;;;7304667;19;9327;-71
2023/07/16 04:54:15;;;;;;;;;;;18.30;99.90;;;;;;7302738;19;10415;-70
2023/07/16 04:56:45;;;;;;;;;;;18.20;99.90;;;;;;7301474;19;9212;-71
2023/07/16 04:59:14;;;;;;;;;;;18.10;99.90;;;;;;7304477;19;9354;-72
2023/07/16 05:01:42;;;;;;;;;;;18.20;99.90;;;;;;7302143;19;10158;-71
2023/07/16 05:04:14;;;;;;;;;;;18.20;99.90;;;;;;7304394;19;9310;-71
2023/07/16 05:06:43;;;;;;;;;;;18.30;99.90;;;;;;7306737;19;9431;-71
2023/07/16 05:09:12;;;;;;;;;;;18.40;99.90;;;;;;7304312;19;9331;-71
2023/07/16 05:11:41;;;;;;;;;;;18.50;99.90;;;;;;7305988;19;9283;-71
2023/07/16 05:14:10;;;;;;;;;;;18.60;99.90;;;;;;7302392;19;9221;-71
2023/07/16 05:16:39;;;;;;;;;;;18.70;99.90;;;;;;7304632;19;9487;-71
2023/07/16 05:19:08;;;;;;;;;;;18.80;99.90;;;;;;7303368;19;9324;-71
2023/07/16 05:21:39;;;;;;;;;;;18.80;99.90;;;;;;7302148;19;11050;-71
2023/07/16 05:24:08;;;;;;;;;;;18.90;99.90;;;;;;7304484;19;10169;-72
2023/07/16 05:26:37;;;;;;;;;;;18.90;99.90;;;;;;7304415;19;9448;-71
2023/07/16 05:29:06;;;;;;;;;;;19.00;99.90;;;;;;7303644;19;9461;-71
2023/07/16 05:31:35;;;;;;;;;;;19.00;99.90;;;;;;7305666;19;9256;-71
2023/07/16 05:34:04;;;;;;;;;;;19.20;99.90;;;;;;7308062;19;9249;-71
2023/07/16 05:36:33;;;;;;;;;;;19.10;99.90;;;;;;7309334;19;9965;-71
2023/07/16 05:39:05;;;;;;;;;;;19.20;99.90;;;;;;7303455;19;9574;-71
2023/07/16 05:41:33;;;;;;;;;;;19.20;99.90;;;;;;7304205;19;9299;-71
2023/07/16 05:44:03;;;;;;;;;;;19.40;99.90;;;;;;7302528;19;11303;-71
2023/07/16 05:46:31;;;;;;;;;;;19.40;99.90;;;;;;7306743;19;9407;-71
2023/07/16 05:49:00;;;;;;;;;;;19.50;99.90;;;;;;7302640;19;10413;-71
2023/07/16 05:51:29;;;;;;;;;;;19.80;99.90;;;;;;7302891;19;9490;-71
2023/07/16 05:53:58;;;;;;;;;;;19.90;99.90;;;;;;7302320;19;9277;-72
2023/07/16 05:56:30;;;;;;;;;;;20.00;99.90;;;;;;7302608;19;9521;-71
2023/07/16 05:58:59;;;;;;;;;;;20.10;99.90;;;;;;7302525;19;9321;-71
2023/07/16 06:01:28;;;;;;;;;;;20.00;99.90;;;;;;7301121;19;9561;-71
2023/07/16 06:03:57;;;;;;;;;;;20.00;99.90;;;;;;7301473;19;11059;-72
2023/07/16 06:06:26;;;;;;;;;;;20.10;99.90;;;;;;7302378;19;9307;-71
2023/07/16 06:08:55;;;;;;;;;;;20.20;99.90;;;;;;7301148;19;9419;-71
2023/07/16 06:11:24;;;;;;;;;;;20.10;99.90;;;;;;7300329;19;9263;-71
2023/07/16 06:13:56;;;;;;;;;;;20.10;99.90;;;;;;7300922;19;9484;-70
2023/07/16 06:16:25;;;;;;;;;;;20.30;99.90;;;;;;7302999;19;9314;-71
2023/07/16 06:18:54;;;;;;;;;;;20.40;99.90;;;;;;7301666;19;9501;-72
2023/07/16 06:21:23;;;;;;;;;;;20.50;99.90;;;;;;7300067;19;10703;-71
2023/07/16 06:23:52;;;;;;;;;;;20.60;99.90;;;;;;7298317;19;9618;-72
2023/07/16 06:26:21;;;;;;;;;;;20.70;99.10;;;;;;7302429;19;8944;-71
2023/07/16 06:28:50;;;;;;;;;;;20.80;98.40;;;;;;7297120;19;9409;-71
2023/07/16 06:31:22;;;;;;;;;;;20.80;97.90;;;;;;7300837;19;9645;-71
2023/07/16 06:33:51;;;;;;;;;;;20.90;98.60;;;;;;7279227;19;9509;-72
2023/07/16 06:36:20;;;;;;;;;;;20.90;97.10;;;;;;7275880;19;10607;-71
2023/07/16 06:38:49;;;;;;;;;;;20.80;97.70;;;;;;7269173;19;9753;-71
2023/07/16 06:41:18;;;;;;;;;;;20.70;98.10;;;;;;7276055;19;9256;-72
2023/07/16 06:43:47;;;;;;;;;;;21.00;97.50;;;;;;7272258;19;9453;-71
2023/07/16 06:46:16;;;;;;;;;;;21.10;97.00;;;;;;7274391;19;9467;-71
2023/07/16 06:48:48;;;;;;;;;;;21.10;96.20;;;;;;7280865;19;13775;-71
2023/07/16 06:51:17;;;;;;;;;;;20.90;96.50;;;;;;7297714;19;9248;-71
2023/07/16 06:53:46;;;;;;;;;;;21.00;97.00;;;;;;7299896;19;9994;-72
2023/07/16 06:56:15;;;;;;;;;;;21.00;96.20;;;;;;7305188;19;9583;-71
2023/07/16 06:58:44;;;;;;;;;;;21.10;96.20;;;;;;7309268;19;9525;-72
2023/07/16 07:01:14;;;;;;;;;;;21.10;96.30;;;;;;7305229;19;9167;-71
2023/07/16 07:03:43;;;;;;;;;;;21.40;95.50;;;;;;7306845;19;9558;-72
2023/07/16 07:06:14;;;;;;;;;;;21.60;95.10;;;;;;7309328;19;9311;-72
2023/07/16 07:08:43;;;;;;;;;;;21.70;94.00;;;;;;7306107;19;9462;-72
2023/07/16 07:11:12;;;;;;;;;;;21.90;93.60;;;;;;7301194;19;10417;-72
2023/07/16 07:13:42;;;;;;;;;;;21.90;92.80;;;;;;7308893;19;9176;-71
2023/07/16 07:16:11;;;;;;;;;;;22.20;92.20;;;;;;7307739;19;9232;-72
2023/07/16 07:18:40;;;;;;;;;;;22.30;91.10;;;;;;7308793;19;9861;-72
2023/07/16 07:21:09;;;;;;;;;;;22.50;90.60;;;;;;7306111;19;9301;-72
2023/07/16 07:23:40;;;;;;;;;;;23.00;88.20;;;;;;7305630;19;9136;-72
2023/07/16 07:26:09;;;;;;;;;;;23.40;84.70;;;;;;7304387;19;9715;-71
2023/07/16 07:28:38;;;;;;;;;;;23.70;82.00;;;;;;7307563;19;9301;-72
2023/07/16 07:31:07;;;;;;;;;;;23.70;80.40;;;;;;7304430;19;9450;-71
2023/07/16 07:33:36;;;;;;;;;;;23.60;79.60;;;;;;7313104;19;10766;-72
2023/07/16 07:36:05;;;;;;;;;;;23.60;80.10;;;;;;7312153;19;9395;-72
2023/07/16 07:38:34;;;;;;;;;;;23.70;78.90;;;;;;7307248;19;11722;-72
2023/07/16 07:41:07;;;;;;;;;;;23.90;77.40;;;;;;7304984;19;11061;-72
2023/07/16 07:43:36;;;;;;;;;;;24.00;75.60;;;;;;7306156;19;9450;-71
2023/07/16 07:46:05;;;;;;;;;;;24.00;74.70;;;;;;7306169;19;10867;-72
2023/07/16 07:48:34;;;;;;;;;;;24.20;74.20;;;;;;7300279;19;9281;-72
2023/07/16 07:51:03;;;;;;;;;;;24.20;74.20;;;;;;7308351;19;9738;-73
2023/07/16 07:53:32;;;;;;;;;;;24.50;74.00;;;;;;7307095;19;9383;-72
2023/07/16 07:56:01;;;;;;;;;;;24.60;72.70;;;;;;7305596;19;9434;-72
2023/07/16 07:58:33;;;;;;;;;;;24.70;72.50;;;;;;7306223;19;10158;-71
2023/07/16 08:01:07;;;;;;;;;;;24.80;71.60;;;;;;7304718;19;9140;-72
2023/07/16 08:03:37;;;;;;;;;;;24.70;71.50;;;;;;7305456;19;9001;-72
2023/07/16 08:06:06;;;;;;;;;;;24.40;72.20;;;;;;7315864;19;8944;-72
2023/07/16 08:08:35;;;;;;;;;;;24.40;72.40;;;;;;7307573;19;9119;-72
2023/07/16 08:11:04;;;;;;;;;;;24.20;71.80;;;;;;7304544;19;10152;-71
2023/07/16 08:13:36;;;;;;;;;;;24.00;72.40;;;;;;7306181;19;11728;-72
2023/07/16 08:16:05;;;;;;;;;;;24.00;73.30;;;;;;7305675;19;10243;-72
2023/07/16 08:18:34;;;;;;;;;;;23.90;73.40;;;;;;7292560;19;12648;-72
2023/07/16 08:21:03;;;;;;;;;;;23.80;73.60;;;;;;7296603;19;9260;-72
2023/07/16 08:23:32;;;;;;;;;;;23.70;73.60;;;;;;7303582;19;10145;-71
2023/07/16 08:26:01;;;;;;;;;;;23.60;75.10;;;;;;7303157;19;8945;-72
2023/07/16 08:28:30;;;;;;;;;;;23.60;74.80;;;;;;7305956;19;8945;-71
2023/07/16 08:31:01;;;;;;;;;;;23.50;74.30;;;;;;7303843;19;9577;-72
2023/07/16 08:33:30;;;;;;;;;;;23.40;75.00;;;;;;7307889;19;9313;-72
2023/07/16 08:35:59;;;;;;;;;;;23.40;74.50;;;;;;7307850;19;9268;-72
2023/07/16 08:38:28;;;;;;;;;;;23.30;75.30;;;;;;7305460;19;9244;-72
2023/07/16 08:40:57;;;;;;;;;;;23.20;75.10;;;;;;7301955;19;10887;-72
2023/07/16 08:43:27;;;;;;;;;;;23.10;75.90;;;;;;7304857;19;10764;-71
2023/07/16 08:45:57;;;;;;;;;;;23.20;75.50;;;;;;7303463;19;9390;-72
2023/07/16 08:48:31;;;;;;;;;;;23.20;75.60;;;;;;7303715;19;9428;-72
2023/07/16 08:51:04;;;;;;;;;;;23.10;74.70;;;;;;7307846;19;9477;-72
2023/07/16 08:53:33;;;;;;;;;;;23.10;76.20;;;;;;7317220;19;9442;-72
2023/07/16 08:56:05;;;;;;;;;;;23.00;76.50;;;;;;7303009;19;9708;-71
2023/07/16 08:58:35;;;;;;;;;;;23.10;76.30;;;;;;7304090;19;9465;-72
2023/07/16 09:01:04;;;;;;;;;;;23.30;76.00;;;;;;7304381;19;9260;-72
2023/07/16 09:03:36;;;;;;;;;;;23.30;74.60;;;;;;7302118;19;9766;-72
2023/07/16 09:06:06;;;;;;;;;;;23.40;74.90;;;;;;7295572;19;9497;-72
2023/07/16 09:08:35;;;;;;;;;;;23.20;75.20;;;;;;7301039;19;9232;-72
2023/07/16 09:11:04;;;;;;;;;;;23.10;75.60;;;;;;7300954;19;9414;-72
2023/07/16 09:13:33;;;;;;;;;;;23.30;94.00;;;;;;7300703;19;9333;-72
2023/07/16 09:16:02;;;;;;;;;;;23.50;99.90;;;;;;7301651;19;9404;-75
2023/07/16 09:18:31;;;;;;;;;;;23.60;99.90;;;;;;7303579;19;9426;-71
2023/07/16 09:21:06;;;;;;;;;;;23.60;99.90;;;;;;7300541;19;10719;-71
2023/07/16 09:23:36;;;;;;;;;;;23.90;81.10;;;;;;7315489;19;10146;-71
2023/07/16 09:26:05;;;;;;;;;;;23.70;76.70;;;;;;7319404;19;9256;-70
2023/07/16 09:28:35;;;;;;;;;;;23.90;77.10;;;;;;7323898;19;9152;-70
2023/07/16 09:31:08;;;;;;;;;;;23.80;80.00;;;;;;7285578;19;9345;-73
2023/07/16 09:33:37;;;;;;;;;;;23.90;81.00;;;;;;7314018;19;9878;-73
2023/07/16 09:36:09;;;;;;;;;;;23.80;99.90;;;;;;7310118;19;9437;-73
2023/07/16 09:38:39;;;;;;;;;;;23.70;99.90;;;;;;7299164;19;10161;-73
2023/07/16 09:41:09;;;;;;;;;;;23.80;99.90;;;;;;7315830;19;9338;-73
2023/07/16 09:43:38;;;;;;;;;;;23.70;99.90;;;;;;7319947;19;9522;-73
2023/07/16 09:46:07;;;;;;;;;;;23.70;99.90;;;;;;7315940;19;10157;-73
2023/07/16 09:48:37;;;;;;;;;;;23.50;99.90;;;;;;7319554;19;9642;-74
2023/07/16 09:51:10;;;;;;;;;;;23.50;99.90;;;;;;7325333;19;9133;-73
2023/07/16 09:53:41;;;;;;;;;;;23.40;99.90;;;;;;7320443;19;9291;-73
2023/07/16 09:56:12;;;;;;;;;;;23.20;99.90;;;;;;7319483;19;9517;-74
2023/07/16 09:58:43;;;;;;;;;;;23.10;99.90;;;;;;7317787;19;9252;-74
2023/07/16 10:01:12;;;;;;;;;;;23.10;99.90;;;;;;7322376;19;9236;-74
2023/07/16 10:03:51;;;;;;;;;;;23.00;99.90;;;;;;7324446;19;8998;-74
2023/07/16 10:06:24;;;;;;;;;;;23.00;99.90;;;;;;7333236;19;9627;-73
2023/07/16 10:08:53;;;;;;;;;;;23.00;99.90;;;;;;7314885;19;9378;-75
2023/07/16 10:11:22;;;;;;;;;;;23.00;99.90;;;;;;7307998;19;10904;-73
2023/07/16 10:13:53;;;;;;;;;;;23.00;99.90;;;;;;7310254;19;9392;-73
2023/07/16 10:16:27;;;;;;;;;;;22.90;97.00;;;;;;7307768;19;9562;-72
2023/07/16 10:18:58;;;;;;;;;;;23.00;99.10;;;;;;7305466;19;9367;-73
2023/07/16 10:21:29;;;;;;;;;;;23.00;99.90;;;;;;7306280;19;9367;-74
2023/07/16 10:24:03;;;;;;;;;;;22.90;99.90;;;;;;7304557;19;9261;-74
2023/07/16 10:26:32;;;;;;;;;;;22.90;99.90;;;;;;7310514;19;9261;-72
2023/07/16 10:29:01;;;;;;;;;;;22.80;99.90;;;;;;7308025;19;9540;-73
2023/07/16 10:31:30;;;;;;;;;;;22.80;99.90;;;;;;7309098;19;10514;-73
2023/07/16 10:34:04;;;;;;;;;;;23.00;99.90;;;;;;7310106;19;9142;-73
2023/07/16 10:36:40;;;;;;;;;;;23.30;99.90;;;;;;7315874;19;9333;-72
2023/07/16 10:39:09;;;;;;;;;;;23.60;99.30;;;;;;7306331;19;9489;-73
2023/07/16 10:41:38;;;;;;;;;;;23.70;97.90;;;;;;7307295;19;9340;-73
2023/07/16 10:44:11;;;;;;;;;;;23.70;99.60;;;;;;7306700;19;9549;-74
2023/07/16 10:46:40;;;;;;;;;;;23.90;97.70;;;;;;7305072;19;9462;-73
2023/07/16 10:49:09;;;;;;;;;;;23.90;95.40;;;;;;7308619;19;9204;-73
2023/07/16 10:51:40;;;;;;;;;;;23.70;93.00;;;;;;7306991;19;9381;-72
2023/07/16 10:54:09;;;;;;;;;;;23.40;92.00;;;;;;7308771;19;9224;-73
2023/07/16 10:56:39;;;;;;;;;;;23.20;91.90;;;;;;7306561;19;11141;-73
2023/07/16 10:59:12;;;;;;;;;;;23.20;93.80;;;;;;7307996;19;9240;-73
2023/07/16 11:01:42;;;;;;;;;;;23.30;93.60;;;;;;7306681;19;9351;-73
2023/07/16 11:04:11;;;;;;;;;;;23.30;95.30;;;;;;7306696;19;9273;-73
2023/07/16 11:06:43;;;;;;;;;;;23.20;96.80;;;;;;7307258;19;9284;-73
2023/07/16 11:09:14;;;;;;;;;;;23.10;93.80;;;;;;7306298;19;9700;-73
2023/07/16 11:11:43;;;;;;;;;;;23.00;96.90;;;;;;7306993;19;9236;-73
2023/07/16 11:14:12;;;;;;;;;;;23.00;97.40;;;;;;7306392;19;9217;-73
2023/07/16 11:16:41;;;;;;;;;;;23.20;97.80;;;;;;7305269;19;9343;-74
2023/07/16 11:19:11;;;;;;;;;;;23.30;97.40;;;;;;7305155;19;9264;-73
2023/07/16 11:21:43;;;;;;;;;;;23.30;95.10;;;;;;7306867;19;9256;-73
2023/07/16 11:24:12;;;;;;;;;;;23.20;94.00;;;;;;7304697;19;9271;-73
2023/07/16 11:26:41;;;;;;;;;;;23.20;94.50;;;;;;7302259;19;9205;-73
2023/07/16 11:29:17;;;;;;;;;;;23.40;93.40;;;;;;7305231;19;9493;-73
2023/07/16 11:31:46;;;;;;;;;;;23.50;91.60;;;;;;7308071;19;9343;-74
2023/07/16 11:34:16;;;;;;;;;;;23.60;94.60;;;;;;7310524;19;9252;-73
2023/07/16 11:36:48;;;;;;;;;;;23.70;93.10;;;;;;7312496;19;9252;-73
2023/07/16 11:39:17;;;;;;;;;;;23.70;93.60;;;;;;7306087;19;9367;-73
2023/07/16 11:41:57;;;;;;;;;;;24.00;91.70;;;;;;7304564;19;9256;-73
2023/07/16 11:44:26;;;;;;;;;;;24.00;91.40;;;;;;7303732;19;9486;-73
2023/07/16 11:46:55;;;;;;;;;;;23.70;86.50;;;;;;7306582;19;9418;-72
2023/07/16 11:49:24;;;;;;;;;;;23.60;87.80;;;;;;7305636;19;9395;-73
2023/07/16 11:51:56;;;;;;;;;;;23.60;91.80;;;;;;7305505;19;9168;-73
2023/07/16 11:54:25;;;;;;;;;;;23.50;91.00;;;;;;7305465;19;9470;-73
2023/07/16 11:56:54;;;;;;;;;;;23.50;90.50;;;;;;7304721;19;9628;-72
2023/07/16 11:59:23;;;;;;;;;;;23.40;90.90;;;;;;7305570;19;10114;-73
2023/07/16 12:01:53;;;;;;;;;;;23.40;91.20;;;;;;7304518;19;9277;-73
2023/07/16 12:04:22;;;;;;;;;;;23.30;91.80;;;;;;7305340;19;9249;-73
2023/07/16 12:06:52;;;;;;;;;;;23.30;90.10;;;;;;7309323;19;9411;-73
2023/07/16 12:09:23;;;;;;;;;;;23.20;91.30;;;;;;7305293;19;9534;-74
2023/07/16 12:11:52;;;;;;;;;;;23.30;90.50;;;;;;7304723;19;9536;-74
2023/07/16 12:14:21;;;;;;;;;;;23.30;90.30;;;;;;7305888;19;9240;-74
2023/07/16 12:16:50;;;;;;;;;;;23.20;90.20;;;;;;7305305;19;9277;-73
2023/07/16 12:19:19;;;;;;;;;;;23.10;87.50;;;;;;7303790;19;10360;-74
2023/07/16 12:21:48;;;;;;;;;;;23.00;85.00;;;;;;7298922;19;9430;-74
2023/07/16 12:24:18;;;;;;;;;;;22.90;86.70;;;;;;7304240;19;9775;-73
2023/07/16 12:26:50;;;;;;;;;;;22.90;87.10;;;;;;7305628;19;9707;-74
2023/07/16 12:29:19;;;;;;;;;;;22.80;90.70;;;;;;7302330;19;9257;-74
2023/07/16 12:31:48;;;;;;;;;;;22.80;89.70;;;;;;7305224;19;9547;-74
2023/07/16 12:34:17;;;;;;;;;;;22.80;88.70;;;;;;7309670;19;9276;-74
2023/07/16 12:36:45;;;;;;;;;;;22.70;87.30;;;;;;7310661;19;9438;-74
2023/07/16 12:39:14;;;;;;;;;;;22.90;90.00;;;;;;7305033;19;9369;-73
2023/07/16 12:41:44;;;;;;;;;;;22.80;86.60;;;;;;7306266;19;9277;-73
2023/07/16 12:44:16;;;;;;;;;;;23.00;88.50;;;;;;7302528;19;9278;-74
2023/07/16 12:46:45;;;;;;;;;;;23.10;87.40;;;;;;7304285;19;9260;-73
2023/07/16 12:49:14;;;;;;;;;;;23.20;88.40;;;;;;7304036;19;9425;-73
2023/07/16 12:51:43;;;;;;;;;;;23.30;87.20;;;;;;7304205;19;9268;-73
2023/07/16 12:54:11;;;;;;;;;;;23.60;85.70;;;;;;7304129;19;9232;-73
2023/07/16 12:56:41;;;;;;;;;;;23.90;82.80;;;;;;7305715;19;9355;-73
2023/07/16 12:59:10;;;;;;;;;;;23.80;81.50;;;;;;7302242;19;9463;-73
2023/07/16 13:01:42;;;;;;;;;;;23.70;81.10;;;;;;7303548;19;9250;-73
2023/07/16 13:04:11;;;;;;;;;;;23.40;81.40;;;;;;7303498;19;9372;-74
2023/07/16 13:06:39;;;;;;;;;;;23.20;81.10;;;;;;7304543;19;9390;-74
2023/07/16 13:09:09;;;;;;;;;;;23.10;82.00;;;;;;7303550;19;9291;-73
2023/07/16 13:11:38;;;;;;;;;;;23.20;81.20;;;;;;7302752;19;10252;-73
2023/07/16 13:14:07;;;;;;;;;;;23.10;83.40;;;;;;7303404;19;9567;-73
2023/07/16 13:16:36;;;;;;;;;;;23.00;82.30;;;;;;7303343;19;9877;-73
2023/07/16 13:19:07;;;;;;;;;;;23.20;83.30;;;;;;7301112;19;9573;-73
2023/07/16 13:21:36;;;;;;;;;;;23.20;83.60;;;;;;7303556;19;9501;-73
2023/07/16 13:24:06;;;;;;;;;;;23.20;83.00;;;;;;7297220;19;9249;-72
2023/07/16 13:26:35;;;;;;;;;;;23.10;82.50;;;;;;7299880;19;9541;-73
2023/07/16 13:29:04;;;;;;;;;;;23.10;83.20;;;;;;7300883;19;9382;-73
2023/07/16 13:31:33;;;;;;;;;;;23.10;82.60;;;;;;7300738;19;9393;-73
2023/07/16 13:34:02;;;;;;;;;;;23.10;81.20;;;;;;7306155;19;9466;-73
2023/07/16 13:36:34;;;;;;;;;;;23.20;82.70;;;;;;7307303;19;9212;-73
2023/07/16 13:39:04;;;;;;;;;;;23.20;81.50;;;;;;7300129;19;9598;-73
2023/07/16 13:41:33;;;;;;;;;;;23.20;82.70;;;;;;7302326;19;10337;-73
2023/07/16 13:44:03;;;;;;;;;;;23.20;81.80;;;;;;7301227;19;9585;-73
2023/07/16 13:46:32;;;;;;;;;;;23.20;82.10;;;;;;7302843;19;9834;-73
2023/07/16 13:49:01;;;;;;;;;;;23.20;81.50;;;;;;7300377;19;9220;-73
2023/07/16 13:51:30;;;;;;;;;;;23.20;82.80;;;;;;7300426;19;10714;-73
2023/07/16 13:54:02;;;;;;;;;;;23.30;81.20;;;;;;7300154;19;10751;-74
2023/07/16 13:56:31;;;;;;;;;;;23.30;81.10;;;;;;7304222;19;9656;-73
2023/07/16 13:59:00;;;;;;;;;;;23.30;81.80;;;;;;7301525;19;9393;-73
2023/07/16 14:01:28;;;;;;;;;;;23.20;81.70;;;;;;7302115;19;9248;-73
2023/07/16 14:03:58;;;;;;;;;;;23.20;82.00;;;;;;7300845;19;9385;-74
2023/07/16 14:06:27;;;;;;;;;;;23.10;82.00;;;;;;7304092;19;9938;-73
2023/07/16 14:08:56;;;;;;;;;;;23.30;82.00;;;;;;7301562;19;9293;-73
2023/07/16 14:11:28;;;;;;;;;;;23.40;81.50;;;;;;7305278;19;9244;-73
2023/07/16 14:13:57;;;;;;;;;;;23.40;80.50;;;;;;7302519;19;9536;-73
2023/07/16 14:16:26;;;;;;;;;;;23.30;80.80;;;;;;7303061;19;11216;-73
2023/07/16 14:18:56;;;;;;;;;;;23.40;80.90;;;;;;7303038;19;9405;-73
2023/07/16 14:21:25;;;;;;;;;;;23.30;80.70;;;;;;7302731;19;9492;-73
2023/07/16 14:23:54;;;;;;;;;;;23.30;80.50;;;;;;7296853;19;9655;-73
2023/07/16 14:26:23;;;;;;;;;;;23.30;80.10;;;;;;7301149;19;9236;-73
2023/07/16 14:28:55;;;;;;;;;;;23.70;80.10;;;;;;7300577;19;9362;-73
2023/07/16 14:31:24;;;;;;;;;;;23.90;79.30;;;;;;7302215;19;9418;-74
2023/07/16 14:33:53;;;;;;;;;;;24.10;77.80;;;;;;7304929;19;9529;-73
2023/07/16 14:36:22;;;;;;;;;;;24.20;76.50;;;;;;7306030;19;9257;-73
2023/07/16 14:38:51;;;;;;;;;;;24.30;75.30;;;;;;7299914;19;9372;-73
2023/07/16 14:41:20;;;;;;;;;;;24.20;76.10;;;;;;7299837;19;9448;-72
2023/07/16 14:43:51;;;;;;;;;;;24.10;75.00;;;;;;7298210;19;9578;-72